This is the latest recevied weather packets stored in our database for station/object KM4KMS. If no packets are shown the sender has not sent any weather packets the latest 1 day(s).
| Time | Temp. | Humidity | Pressure | Rain* | Wind** | Luminosity | Snow |
|---|---|---|---|---|---|---|---|
| 1777995550 | 18.89° C | 73% | 1009.6 hPa | 0 mm | 3.58 m/s, 214° | 139 W/m² | - |
| 1777995248 | 18.89° C | 72% | 1009.5 hPa | 0 mm | 3.58 m/s, 206° | 157 W/m² | - |
| 1777994944 | 18.89° C | 73% | 1009.5 hPa | 0 mm | 3.13 m/s, 225° | 192 W/m² | - |
| 1777994636 | 18.89° C | 74% | 1009.5 hPa | 0 mm | 1.34 m/s, 225° | 252 W/m² | - |
| 1777994335 | 18.33° C | 72% | 1009.2 hPa | 0 mm | 3.58 m/s, 236° | 256 W/m² | - |
| 1777994032 | 18.33° C | 74% | 1009.5 hPa | 0 mm | 2.68 m/s, 238° | 207 W/m² | - |
| 1777993729 | 18.33° C | 74% | 1009.4 hPa | 0 mm | 2.68 m/s, 244° | 184 W/m² | - |
| 1777993426 | 18.33° C | 73% | 1009.2 hPa | 0 mm | 4.02 m/s, 241° | 209 W/m² | - |
| 1777993120 | 18.33° C | 74% | 1009.4 hPa | 0 mm | 2.68 m/s, 213° | 228 W/m² | - |
| 1777992813 | 18.33° C | 74% | 1009.1 hPa | 0 mm | 1.79 m/s, 191° | 232 W/m² | - |
| 1777992511 | 18.33° C | 73% | 1009.4 hPa | 0 mm | 2.68 m/s, 195° | 235 W/m² | - |
| 1777992209 | 17.78° C | 73% | 1009.1 hPa | 0 mm | 4.47 m/s, 196° | 235 W/m² | - |
| 1777991906 | 17.78° C | 74% | 1009.1 hPa | 0 mm | 4.47 m/s, 231° | 240 W/m² | - |
| 1777991603 | 17.78° C | 74% | 1009.1 hPa | 0 mm | 3.13 m/s, 194° | 230 W/m² | - |
| 1777991300 | 17.78° C | 74% | 1009.1 hPa | 0 mm | 3.58 m/s, 214° | 225 W/m² | - |
| 1777990998 | 17.78° C | 75% | 1009.3 hPa | 0 mm | 1.79 m/s, 241° | 219 W/m² | - |
| 1777990695 | 17.78° C | 74% | 1009.3 hPa | 0 mm | 3.58 m/s, 161° | 217 W/m² | - |
| 1777990392 | 17.78° C | 74% | 1009.1 hPa | 0 mm | 3.13 m/s, 223° | 212 W/m² | - |
| 1777990089 | 17.78° C | 75% | 1009 hPa | 0 mm | 2.68 m/s, 197° | 215 W/m² | - |
| 1777989785 | 17.22° C | 77% | 1009 hPa | 0 mm | 2.68 m/s, 210° | 227 W/m² | - |
| 1777989482 | 17.22° C | 77% | 1008.9 hPa | 0 mm | 4.02 m/s, 159° | 216 W/m² | - |
| 1777989178 | 17.22° C | 78% | 1009.2 hPa | 0 mm | 4.02 m/s, 176° | 221 W/m² | - |
| 1777988874 | 16.67° C | 81% | 1009 hPa | 0 mm | 1.79 m/s, 181° | 211 W/m² | - |
| 1777988572 | 16.67° C | 81% | 1009.2 hPa | 0 mm | 1.79 m/s, 203° | 198 W/m² | - |
| 1777988268 | 16.67° C | 81% | 1009.3 hPa | 0 mm | 2.68 m/s, 212° | 187 W/m² | - |
* Rain latest hour (hover to see other rain measurements)
** Current wind speed in m/s (hover to see current wind gust speed)